sensor_id;sensor_type;location;lat;lon;timestamp;temperature;humidity
37956;DHT22;23776;51.592;7.180;2022-07-23T00:01:31;17.60;99.90
37956;DHT22;23776;51.592;7.180;2022-07-23T00:03:56;17.60;99.90
37956;DHT22;23776;51.592;7.180;2022-07-23T00:06:23;17.60;99.90
37956;DHT22;23776;51.592;7.180;2022-07-23T00:08:49;17.60;99.90
37956;DHT22;23776;51.592;7.180;2022-07-23T00:11:15;17.50;99.90
37956;DHT22;23776;51.592;7.180;2022-07-23T00:13:40;17.40;99.90
37956;DHT22;23776;51.592;7.180;2022-07-23T00:16:06;17.50;99.90
37956;DHT22;23776;51.592;7.180;2022-07-23T00:18:32;17.50;99.90
37956;DHT22;23776;51.592;7.180;2022-07-23T00:20:57;17.40;99.90
37956;DHT22;23776;51.592;7.180;2022-07-23T00:23:23;17.40;99.90
37956;DHT22;23776;51.592;7.180;2022-07-23T00:25:50;17.40;99.90
37956;DHT22;23776;51.592;7.180;2022-07-23T00:28:17;17.30;99.90
37956;DHT22;23776;51.592;7.180;2022-07-23T00:30:43;17.30;99.90
37956;DHT22;23776;51.592;7.180;2022-07-23T00:33:09;17.20;99.90
37956;DHT22;23776;51.592;7.180;2022-07-23T00:35:38;17.20;99.90
37956;DHT22;23776;51.592;7.180;2022-07-23T00:38:07;17.10;99.90
37956;DHT22;23776;51.592;7.180;2022-07-23T00:40:32;17.10;99.90
37956;DHT22;23776;51.592;7.180;2022-07-23T00:42:59;17.20;99.90
37956;DHT22;23776;51.592;7.180;2022-07-23T00:45:25;17.20;99.90
37956;DHT22;23776;51.592;7.180;2022-07-23T00:47:51;17.20;99.90
37956;DHT22;23776;51.592;7.180;2022-07-23T00:50:16;17.10;99.90
37956;DHT22;23776;51.592;7.180;2022-07-23T00:52:42;16.10;99.90
37956;DHT22;23776;51.592;7.180;2022-07-23T00:55:09;17.00;99.90
37956;DHT22;23776;51.592;7.180;2022-07-23T00:57:36;17.00;99.90
37956;DHT22;23776;51.592;7.180;2022-07-23T01:00:06;17.00;99.90
37956;DHT22;23776;51.592;7.180;2022-07-23T01:02:33;17.00;99.90
37956;DHT22;23776;51.592;7.180;2022-07-23T01:04:58;17.00;99.90
37956;DHT22;23776;51.592;7.180;2022-07-23T01:07:24;17.00;99.90
37956;DHT22;23776;51.592;7.180;2022-07-23T01:09:51;17.00;99.90
37956;DHT22;23776;51.592;7.180;2022-07-23T01:12:17;17.00;99.90
37956;DHT22;23776;51.592;7.180;2022-07-23T01:14:43;18.40;99.90
37956;DHT22;23776;51.592;7.180;2022-07-23T01:17:08;15.80;99.90
37956;DHT22;23776;51.592;7.180;2022-07-23T01:19:34;17.00;99.90
37956;DHT22;23776;51.592;7.180;2022-07-23T01:22:02;16.90;99.90
37956;DHT22;23776;51.592;7.180;2022-07-23T01:24:28;17.00;99.90
37956;DHT22;23776;51.592;7.180;2022-07-23T01:26:54;17.00;99.90
37956;DHT22;23776;51.592;7.180;2022-07-23T01:29:20;17.00;99.90
37956;DHT22;23776;51.592;7.180;2022-07-23T01:31:46;17.00;99.90
37956;DHT22;23776;51.592;7.180;2022-07-23T01:34:13;17.00;99.90
37956;DHT22;23776;51.592;7.180;2022-07-23T01:36:39;16.90;99.90
37956;DHT22;23776;51.592;7.180;2022-07-23T01:39:05;17.00;99.90
37956;DHT22;23776;51.592;7.180;2022-07-23T01:41:32;16.90;99.90
37956;DHT22;23776;51.592;7.180;2022-07-23T01:43:58;17.00;99.90
37956;DHT22;23776;51.592;7.180;2022-07-23T01:46:24;17.00;99.90
37956;DHT22;23776;51.592;7.180;2022-07-23T01:48:49;17.00;99.90
37956;DHT22;23776;51.592;7.180;2022-07-23T01:51:15;17.10;99.90
37956;DHT22;23776;51.592;7.180;2022-07-23T01:53:41;17.10;99.90
37956;DHT22;23776;51.592;7.180;2022-07-23T01:56:06;17.10;99.90
37956;DHT22;23776;51.592;7.180;2022-07-23T01:58:32;17.00;99.90
37956;DHT22;23776;51.592;7.180;2022-07-23T02:00:58;17.00;99.90
37956;DHT22;23776;51.592;7.180;2022-07-23T02:03:23;17.00;99.90
37956;DHT22;23776;51.592;7.180;2022-07-23T02:05:50;16.90;99.90
37956;DHT22;23776;51.592;7.180;2022-07-23T02:08:16;17.00;99.90
37956;DHT22;23776;51.592;7.180;2022-07-23T02:10:42;17.00;99.90
37956;DHT22;23776;51.592;7.180;2022-07-23T02:13:07;17.00;99.90
37956;DHT22;23776;51.592;7.180;2022-07-23T02:15:33;17.00;99.90
37956;DHT22;23776;51.592;7.180;2022-07-23T02:17:59;17.00;99.90
37956;DHT22;23776;51.592;7.180;2022-07-23T02:20:24;17.00;99.90
37956;DHT22;23776;51.592;7.180;2022-07-23T02:22:51;16.90;99.90
37956;DHT22;23776;51.592;7.180;2022-07-23T02:25:17;16.90;99.90
37956;DHT22;23776;51.592;7.180;2022-07-23T02:27:42;16.90;99.90
37956;DHT22;23776;51.592;7.180;2022-07-23T02:30:09;16.90;99.90
37956;DHT22;23776;51.592;7.180;2022-07-23T02:32:35;16.90;99.90
37956;DHT22;23776;51.592;7.180;2022-07-23T02:35:01;16.80;99.90
37956;DHT22;23776;51.592;7.180;2022-07-23T02:37:27;16.90;99.90
37956;DHT22;23776;51.592;7.180;2022-07-23T02:39:53;16.80;99.90
37956;DHT22;23776;51.592;7.180;2022-07-23T02:42:18;16.70;99.90
37956;DHT22;23776;51.592;7.180;2022-07-23T02:44:44;16.50;99.90
37956;DHT22;23776;51.592;7.180;2022-07-23T02:47:10;16.60;99.90
37956;DHT22;23776;51.592;7.180;2022-07-23T02:49:36;16.60;99.90
37956;DHT22;23776;51.592;7.180;2022-07-23T02:52:02;16.40;99.90
37956;DHT22;23776;51.592;7.180;2022-07-23T02:54:27;16.40;99.90
37956;DHT22;23776;51.592;7.180;2022-07-23T02:56:53;16.40;99.90
37956;DHT22;23776;51.592;7.180;2022-07-23T02:59:19;16.40;99.90
37956;DHT22;23776;51.592;7.180;2022-07-23T03:01:45;16.40;99.90
37956;DHT22;23776;51.592;7.180;2022-07-23T03:04:11;16.30;99.90
37956;DHT22;23776;51.592;7.180;2022-07-23T03:06:37;16.30;99.90
37956;DHT22;23776;51.592;7.180;2022-07-23T03:09:04;16.40;99.90
37956;DHT22;23776;51.592;7.180;2022-07-23T03:11:29;16.50;99.90
37956;DHT22;23776;51.592;7.180;2022-07-23T03:13:55;16.50;99.90
37956;DHT22;23776;51.592;7.180;2022-07-23T03:16:21;16.40;99.90
37956;DHT22;23776;51.592;7.180;2022-07-23T03:18:46;16.50;99.90
37956;DHT22;23776;51.592;7.180;2022-07-23T03:21:12;16.50;99.90
37956;DHT22;23776;51.592;7.180;2022-07-23T03:23:38;16.50;99.90
37956;DHT22;23776;51.592;7.180;2022-07-23T03:26:04;16.40;99.90
37956;DHT22;23776;51.592;7.180;2022-07-23T03:28:29;16.40;99.90
37956;DHT22;23776;51.592;7.180;2022-07-23T03:30:56;16.40;99.90
37956;DHT22;23776;51.592;7.180;2022-07-23T03:33:23;16.40;99.90
37956;DHT22;23776;51.592;7.180;2022-07-23T03:35:49;16.30;99.90
37956;DHT22;23776;51.592;7.180;2022-07-23T03:38:15;16.20;99.90
37956;DHT22;23776;51.592;7.180;2022-07-23T03:40:41;16.20;99.90
37956;DHT22;23776;51.592;7.180;2022-07-23T03:43:06;16.20;99.90
37956;DHT22;23776;51.592;7.180;2022-07-23T03:45:32;16.10;99.90
37956;DHT22;23776;51.592;7.180;2022-07-23T03:47:59;16.20;99.90
37956;DHT22;23776;51.592;7.180;2022-07-23T03:50:25;16.10;99.90
37956;DHT22;23776;51.592;7.180;2022-07-23T03:52:51;16.10;99.90
37956;DHT22;23776;51.592;7.180;2022-07-23T03:55:17;16.00;99.90
37956;DHT22;23776;51.592;7.180;2022-07-23T03:57:42;16.00;99.90
37956;DHT22;23776;51.592;7.180;2022-07-23T04:00:10;15.90;99.90
37956;DHT22;23776;51.592;7.180;2022-07-23T04:02:37;15.90;99.90
37956;DHT22;23776;51.592;7.180;2022-07-23T04:05:03;15.90;99.90
37956;DHT22;23776;51.592;7.180;2022-07-23T04:07:29;15.90;99.90
37956;DHT22;23776;51.592;7.180;2022-07-23T04:09:55;15.90;99.90
37956;DHT22;23776;51.592;7.180;2022-07-23T04:12:20;16.00;99.90
37956;DHT22;23776;51.592;7.180;2022-07-23T04:14:46;15.90;99.90
37956;DHT22;23776;51.592;7.180;2022-07-23T04:17:12;15.90;99.90
37956;DHT22;23776;51.592;7.180;2022-07-23T04:19:37;15.80;99.90
37956;DHT22;23776;51.592;7.180;2022-07-23T04:22:07;15.80;99.90
37956;DHT22;23776;51.592;7.180;2022-07-23T04:24:33;15.70;99.90
37956;DHT22;23776;51.592;7.180;2022-07-23T04:26:59;15.70;99.90
37956;DHT22;23776;51.592;7.180;2022-07-23T04:29:24;15.70;99.90
37956;DHT22;23776;51.592;7.180;2022-07-23T04:31:50;15.70;99.90
37956;DHT22;23776;51.592;7.180;2022-07-23T04:34:16;15.70;99.90
37956;DHT22;23776;51.592;7.180;2022-07-23T04:36:42;15.70;99.90
37956;DHT22;23776;51.592;7.180;2022-07-23T04:39:07;15.70;99.90
37956;DHT22;23776;51.592;7.180;2022-07-23T04:41:33;15.70;99.90
37956;DHT22;23776;51.592;7.180;2022-07-23T04:44:00;15.80;99.90
37956;DHT22;23776;51.592;7.180;2022-07-23T04:46:26;15.80;99.90
37956;DHT22;23776;51.592;7.180;2022-07-23T04:48:52;15.90;99.90
37956;DHT22;23776;51.592;7.180;2022-07-23T04:51:17;15.90;99.90
37956;DHT22;23776;51.592;7.180;2022-07-23T04:53:43;15.90;99.90
37956;DHT22;23776;51.592;7.180;2022-07-23T04:56:08;15.90;99.90
37956;DHT22;23776;51.592;7.180;2022-07-23T04:58:34;15.90;99.90
37956;DHT22;23776;51.592;7.180;2022-07-23T05:01:00;15.90;99.90
37956;DHT22;23776;51.592;7.180;2022-07-23T05:03:26;16.00;99.90
37956;DHT22;23776;51.592;7.180;2022-07-23T05:05:52;16.00;99.90
37956;DHT22;23776;51.592;7.180;2022-07-23T05:08:17;16.00;99.90
37956;DHT22;23776;51.592;7.180;2022-07-23T05:10:43;15.90;99.90
37956;DHT22;23776;51.592;7.180;2022-07-23T05:13:08;15.90;99.90
37956;DHT22;23776;51.592;7.180;2022-07-23T05:15:34;15.90;99.90
37956;DHT22;23776;51.592;7.180;2022-07-23T05:18:00;15.90;99.90
37956;DHT22;23776;51.592;7.180;2022-07-23T05:20:25;16.00;99.90
37956;DHT22;23776;51.592;7.180;2022-07-23T05:22:51;16.10;99.90
37956;DHT22;23776;51.592;7.180;2022-07-23T05:25:17;16.20;99.90
37956;DHT22;23776;51.592;7.180;2022-07-23T05:27:43;16.30;99.90
37956;DHT22;23776;51.592;7.180;2022-07-23T05:30:09;16.30;99.90
37956;DHT22;23776;51.592;7.180;2022-07-23T05:32:35;16.40;99.90
37956;DHT22;23776;51.592;7.180;2022-07-23T05:35:03;16.60;99.90
37956;DHT22;23776;51.592;7.180;2022-07-23T05:37:29;16.60;99.90
37956;DHT22;23776;51.592;7.180;2022-07-23T05:39:54;16.70;99.90
37956;DHT22;23776;51.592;7.180;2022-07-23T05:42:20;16.80;99.90
37956;DHT22;23776;51.592;7.180;2022-07-23T05:44:45;16.80;99.90
37956;DHT22;23776;51.592;7.180;2022-07-23T05:47:11;16.90;99.90
37956;DHT22;23776;51.592;7.180;2022-07-23T05:49:37;17.00;99.90
37956;DHT22;23776;51.592;7.180;2022-07-23T05:52:07;17.00;99.90
37956;DHT22;23776;51.592;7.180;2022-07-23T05:54:36;17.00;99.90
37956;DHT22;23776;51.592;7.180;2022-07-23T05:57:02;17.00;99.90
37956;DHT22;23776;51.592;7.180;2022-07-23T05:59:28;17.10;99.90
37956;DHT22;23776;51.592;7.180;2022-07-23T06:01:53;17.10;99.90
37956;DHT22;23776;51.592;7.180;2022-07-23T06:04:19;17.30;99.90
37956;DHT22;23776;51.592;7.180;2022-07-23T06:06:44;17.30;99.90
37956;DHT22;23776;51.592;7.180;2022-07-23T06:09:10;17.30;99.70
37956;DHT22;23776;51.592;7.180;2022-07-23T06:11:39;17.40;98.90
37956;DHT22;23776;51.592;7.180;2022-07-23T06:14:05;17.40;99.70
37956;DHT22;23776;51.592;7.180;2022-07-23T06:16:30;17.50;99.40
37956;DHT22;23776;51.592;7.180;2022-07-23T06:18:56;17.60;99.40
37956;DHT22;23776;51.592;7.180;2022-07-23T06:21:21;17.70;99.50
37956;DHT22;23776;51.592;7.180;2022-07-23T06:23:47;17.70;99.20
37956;DHT22;23776;51.592;7.180;2022-07-23T06:26:12;17.80;98.90
37956;DHT22;23776;51.592;7.180;2022-07-23T06:28:38;17.80;98.80
37956;DHT22;23776;51.592;7.180;2022-07-23T06:31:04;17.90;98.70
37956;DHT22;23776;51.592;7.180;2022-07-23T06:33:29;17.90;98.10
37956;DHT22;23776;51.592;7.180;2022-07-23T06:35:55;18.00;97.90
37956;DHT22;23776;51.592;7.180;2022-07-23T06:38:20;18.00;96.40
37956;DHT22;23776;51.592;7.180;2022-07-23T06:40:46;18.10;95.50
37956;DHT22;23776;51.592;7.180;2022-07-23T06:43:11;18.10;94.80
37956;DHT22;23776;51.592;7.180;2022-07-23T06:45:37;18.10;95.00
37956;DHT22;23776;51.592;7.180;2022-07-23T06:48:03;18.10;91.70
37956;DHT22;23776;51.592;7.180;2022-07-23T06:50:29;18.20;92.00
37956;DHT22;23776;51.592;7.180;2022-07-23T06:52:54;18.20;92.20
37956;DHT22;23776;51.592;7.180;2022-07-23T06:55:20;18.20;88.60
37956;DHT22;23776;51.592;7.180;2022-07-23T06:57:45;18.20;89.20
37956;DHT22;23776;51.592;7.180;2022-07-23T07:00:11;18.00;91.30
37956;DHT22;23776;51.592;7.180;2022-07-23T07:02:37;18.00;91.10
37956;DHT22;23776;51.592;7.180;2022-07-23T07:05:03;18.10;91.30
37956;DHT22;23776;51.592;7.180;2022-07-23T07:07:29;18.20;90.90
37956;DHT22;23776;51.592;7.180;2022-07-23T07:09:54;18.30;90.90
37956;DHT22;23776;51.592;7.180;2022-07-23T07:12:20;18.40;91.10
37956;DHT22;23776;51.592;7.180;2022-07-23T07:14:45;18.50;90.40
37956;DHT22;23776;51.592;7.180;2022-07-23T07:17:11;18.60;89.20
37956;DHT22;23776;51.592;7.180;2022-07-23T07:19:36;18.70;87.40
37956;DHT22;23776;51.592;7.180;2022-07-23T07:22:02;18.80;85.40
37956;DHT22;23776;51.592;7.180;2022-07-23T07:24:28;18.90;78.40
37956;DHT22;23776;51.592;7.180;2022-07-23T07:26:53;18.90;77.00
37956;DHT22;23776;51.592;7.180;2022-07-23T07:29:19;19.00;76.10
37956;DHT22;23776;51.592;7.180;2022-07-23T07:31:44;18.40;73.50
37956;DHT22;23776;51.592;7.180;2022-07-23T07:34:10;19.10;64.50
37956;DHT22;23776;51.592;7.180;2022-07-23T07:36:35;19.10;65.00
37956;DHT22;23776;51.592;7.180;2022-07-23T07:39:03;19.20;67.20
37956;DHT22;23776;51.592;7.180;2022-07-23T07:41:30;19.20;62.80
37956;DHT22;23776;51.592;7.180;2022-07-23T07:43:56;19.20;62.40
37956;DHT22;23776;51.592;7.180;2022-07-23T07:46:21;19.30;50.00
37956;DHT22;23776;51.592;7.180;2022-07-23T07:48:49;19.50;53.50
37956;DHT22;23776;51.592;7.180;2022-07-23T07:51:15;19.60;53.80
37956;DHT22;23776;51.592;7.180;2022-07-23T07:53:41;19.80;42.50
37956;DHT22;23776;51.592;7.180;2022-07-23T07:56:06;19.90;31.40
37956;DHT22;23776;51.592;7.180;2022-07-23T07:58:32;20.00;22.90
37956;DHT22;23776;51.592;7.180;2022-07-23T08:00:57;20.10;20.60
37956;DHT22;23776;51.592;7.180;2022-07-23T08:03:23;20.30;28.70
37956;DHT22;23776;51.592;7.180;2022-07-23T08:05:49;20.40;12.70
37956;DHT22;23776;51.592;7.180;2022-07-23T08:08:14;20.30;6.50
37956;DHT22;23776;51.592;7.180;2022-07-23T08:10:41;20.30;11.40
37956;DHT22;23776;51.592;7.180;2022-07-23T08:13:07;20.20;13.60
37956;DHT22;23776;51.592;7.180;2022-07-23T08:15:32;20.10;17.70
37956;DHT22;23776;51.592;7.180;2022-07-23T08:17:59;20.10;23.00
37956;DHT22;23776;51.592;7.180;2022-07-23T08:20:25;20.10;16.20
37956;DHT22;23776;51.592;7.180;2022-07-23T08:22:59;20.20;16.40
37956;DHT22;23776;51.592;7.180;2022-07-23T08:25:41;20.40;8.90
37956;DHT22;23776;51.592;7.180;2022-07-23T08:28:09;20.50;1.00
37956;DHT22;23776;51.592;7.180;2022-07-23T08:30:37;20.70;1.00
37956;DHT22;23776;51.592;7.180;2022-07-23T08:35:31;20.50;68.70
37956;DHT22;23776;51.592;7.180;2022-07-23T08:37:58;20.50;1.00
37956;DHT22;23776;51.592;7.180;2022-07-23T08:40:26;20.50;1.00
37956;DHT22;23776;51.592;7.180;2022-07-23T08:42:52;20.50;1.00
37956;DHT22;23776;51.592;7.180;2022-07-23T08:45:19;20.60;4.80
37956;DHT22;23776;51.592;7.180;2022-07-23T08:47:57;20.60;8.50
37956;DHT22;23776;51.592;7.180;2022-07-23T08:50:26;20.70;54.50
37956;DHT22;23776;51.592;7.180;2022-07-23T08:52:53;20.80;99.90
37956;DHT22;23776;51.592;7.180;2022-07-23T08:55:20;20.90;99.90
37956;DHT22;23776;51.592;7.180;2022-07-23T08:57:51;21.00;1.00
37956;DHT22;23776;51.592;7.180;2022-07-23T09:00:18;21.10;99.90
37956;DHT22;23776;51.592;7.180;2022-07-23T09:02:45;20.90;1.00
37956;DHT22;23776;51.592;7.180;2022-07-23T09:05:12;20.70;28.90
37956;DHT22;23776;51.592;7.180;2022-07-23T09:08:20;20.70;99.90
37956;DHT22;23776;51.592;7.180;2022-07-23T09:16:01;20.90;99.90
37956;DHT22;23776;51.592;7.180;2022-07-23T09:18:30;21.00;46.50
37956;DHT22;23776;51.592;7.180;2022-07-23T09:21:17;21.10;12.60
37956;DHT22;23776;51.592;7.180;2022-07-23T09:24:28;21.20;99.90
37956;DHT22;23776;51.592;7.180;2022-07-23T09:26:36;22.80;1.00
37956;DHT22;23776;51.592;7.180;2022-07-23T09:31:50;21.40;1.00
37956;DHT22;23776;51.592;7.180;2022-07-23T09:34:26;21.40;77.60
37956;DHT22;23776;51.592;7.180;2022-07-23T09:36:54;21.30;99.90
37956;DHT22;23776;51.592;7.180;2022-07-23T09:39:32;21.50;99.90
37956;DHT22;23776;51.592;7.180;2022-07-23T09:42:19;21.60;99.90
37956;DHT22;23776;51.592;7.180;2022-07-23T09:44:47;21.50;74.10
37956;DHT22;23776;51.592;7.180;2022-07-23T09:47:13;24.30;89.60
37956;DHT22;23776;51.592;7.180;2022-07-23T09:49:39;21.70;1.00
37956;DHT22;23776;51.592;7.180;2022-07-23T09:52:05;21.70;42.00
37956;DHT22;23776;51.592;7.180;2022-07-23T09:54:34;21.80;1.00
37956;DHT22;23776;51.592;7.180;2022-07-23T09:57:04;21.70;51.40
37956;DHT22;23776;51.592;7.180;2022-07-23T09:59:38;21.80;99.90
37956;DHT22;23776;51.592;7.180;2022-07-23T10:02:07;21.90;33.30
37956;DHT22;23776;51.592;7.180;2022-07-23T10:04:34;22.10;1.00
37956;DHT22;23776;51.592;7.180;2022-07-23T10:07:02;22.40;99.90
37956;DHT22;23776;51.592;7.180;2022-07-23T10:09:31;22.50;99.90
37956;DHT22;23776;51.592;7.180;2022-07-23T10:12:00;22.60;1.00
37956;DHT22;23776;51.592;7.180;2022-07-23T10:14:39;22.80;99.90
37956;DHT22;23776;51.592;7.180;2022-07-23T10:17:06;22.70;99.90
37956;DHT22;23776;51.592;7.180;2022-07-23T10:19:32;22.80;99.90
37956;DHT22;23776;51.592;7.180;2022-07-23T10:30:38;23.00;1.00
37956;DHT22;23776;51.592;7.180;2022-07-23T10:36:18;23.40;99.90
37956;DHT22;23776;51.592;7.180;2022-07-23T10:38:58;23.50;1.00
37956;DHT22;23776;51.592;7.180;2022-07-23T10:41:37;23.50;99.90
37956;DHT22;23776;51.592;7.180;2022-07-23T10:44:12;23.50;99.90
37956;DHT22;23776;51.592;7.180;2022-07-23T10:46:58;23.70;99.90
37956;DHT22;23776;51.592;7.180;2022-07-23T10:49:39;23.90;99.90
37956;DHT22;23776;51.592;7.180;2022-07-23T10:57:47;24.40;99.90
37956;DHT22;23776;51.592;7.180;2022-07-23T11:00:21;24.50;99.90
37956;DHT22;23776;51.592;7.180;2022-07-23T11:02:50;24.60;99.90
37956;DHT22;23776;51.592;7.180;2022-07-23T11:05:21;24.70;99.90
37956;DHT22;23776;51.592;7.180;2022-07-23T11:10:41;25.00;15.10
37956;DHT22;23776;51.592;7.180;2022-07-23T11:16:13;24.90;83.70
37956;DHT22;23776;51.592;7.180;2022-07-23T11:34:34;24.90;1.00
37956;DHT22;23776;51.592;7.180;2022-07-23T11:37:02;24.90;1.00
37956;DHT22;23776;51.592;7.180;2022-07-23T11:39:29;25.10;99.90
37956;DHT22;23776;51.592;7.180;2022-07-23T11:41:56;25.40;1.00
37956;DHT22;23776;51.592;7.180;2022-07-23T11:44:34;25.70;1.00
37956;DHT22;23776;51.592;7.180;2022-07-23T11:47:03;25.70;1.00
37956;DHT22;23776;51.592;7.180;2022-07-23T11:49:29;25.70;1.00
37956;DHT22;23776;51.592;7.180;2022-07-23T11:52:11;26.00;1.00
37956;DHT22;23776;51.592;7.180;2022-07-23T11:54:48;25.80;1.00
37956;DHT22;23776;51.592;7.180;2022-07-23T11:57:15;25.90;1.00
37956;DHT22;23776;51.592;7.180;2022-07-23T11:59:41;25.90;1.00
37956;DHT22;23776;51.592;7.180;2022-07-23T12:02:07;25.80;1.00
37956;DHT22;23776;51.592;7.180;2022-07-23T12:04:45;26.10;1.00
37956;DHT22;23776;51.592;7.180;2022-07-23T12:07:38;25.80;1.00
37956;DHT22;23776;51.592;7.180;2022-07-23T12:10:20;26.00;1.00
37956;DHT22;23776;51.592;7.180;2022-07-23T12:12:51;26.10;1.00
37956;DHT22;23776;51.592;7.180;2022-07-23T12:15:23;26.40;1.00
37956;DHT22;23776;51.592;7.180;2022-07-23T12:17:50;26.70;1.00
37956;DHT22;23776;51.592;7.180;2022-07-23T12:20:21;26.90;99.90
37956;DHT22;23776;51.592;7.180;2022-07-23T12:22:50;27.10;99.90
37956;DHT22;23776;51.592;7.180;2022-07-23T12:25:22;27.10;99.90
37956;DHT22;23776;51.592;7.180;2022-07-23T12:30:43;27.10;99.90
37956;DHT22;23776;51.592;7.180;2022-07-23T12:33:14;27.40;99.90
37956;DHT22;23776;51.592;7.180;2022-07-23T12:35:45;28.20;99.90
37956;DHT22;23776;51.592;7.180;2022-07-23T12:38:16;28.60;99.90
37956;DHT22;23776;51.592;7.180;2022-07-23T12:43:31;29.60;99.90
37956;DHT22;23776;51.592;7.180;2022-07-23T12:46:07;30.70;99.90
37956;DHT22;23776;51.592;7.180;2022-07-23T12:51:08;32.70;99.90
37956;DHT22;23776;51.592;7.180;2022-07-23T12:53:40;32.30;99.90
37956;DHT22;23776;51.592;7.180;2022-07-23T12:56:07;32.10;99.90
37956;DHT22;23776;51.592;7.180;2022-07-23T13:01:08;32.90;99.90
37956;DHT22;23776;51.592;7.180;2022-07-23T13:03:39;33.60;99.90
37956;DHT22;23776;51.592;7.180;2022-07-23T13:06:10;33.30;99.90
37956;DHT22;23776;51.592;7.180;2022-07-23T13:08:38;34.10;99.90
37956;DHT22;23776;51.592;7.180;2022-07-23T13:11:06;33.80;99.90
37956;DHT22;23776;51.592;7.180;2022-07-23T13:13:34;33.70;99.90
37956;DHT22;23776;51.592;7.180;2022-07-23T13:16:00;34.20;99.90
37956;DHT22;23776;51.592;7.180;2022-07-23T13:18:27;34.70;99.90
37956;DHT22;23776;51.592;7.180;2022-07-23T13:20:53;34.30;99.90
37956;DHT22;23776;51.592;7.180;2022-07-23T13:23:19;35.10;99.90
37956;DHT22;23776;51.592;7.180;2022-07-23T13:25:46;35.10;99.90
37956;DHT22;23776;51.592;7.180;2022-07-23T13:28:13;34.40;99.90
37956;DHT22;23776;51.592;7.180;2022-07-23T13:30:39;34.50;99.90
37956;DHT22;23776;51.592;7.180;2022-07-23T13:33:05;35.70;99.90
37956;DHT22;23776;51.592;7.180;2022-07-23T13:35:32;37.00;99.90
37956;DHT22;23776;51.592;7.180;2022-07-23T13:37:58;37.40;99.90
37956;DHT22;23776;51.592;7.180;2022-07-23T13:40:24;38.00;99.90
37956;DHT22;23776;51.592;7.180;2022-07-23T13:42:49;38.30;99.90
37956;DHT22;23776;51.592;7.180;2022-07-23T13:45:15;38.60;99.90
37956;DHT22;23776;51.592;7.180;2022-07-23T13:47:41;38.20;99.90
37956;DHT22;23776;51.592;7.180;2022-07-23T13:50:06;37.80;99.90
37956;DHT22;23776;51.592;7.180;2022-07-23T13:52:32;37.30;99.90
37956;DHT22;23776;51.592;7.180;2022-07-23T13:55:02;35.80;99.90
37956;DHT22;23776;51.592;7.180;2022-07-23T13:57:30;35.80;99.90
37956;DHT22;23776;51.592;7.180;2022-07-23T13:59:56;36.70;99.90
37956;DHT22;23776;51.592;7.180;2022-07-23T14:02:22;38.20;99.90
37956;DHT22;23776;51.592;7.180;2022-07-23T14:04:48;39.30;99.90
37956;DHT22;23776;51.592;7.180;2022-07-23T14:07:14;39.50;99.90
37956;DHT22;23776;51.592;7.180;2022-07-23T14:09:40;40.10;99.90
37956;DHT22;23776;51.592;7.180;2022-07-23T14:12:07;40.80;99.90
37956;DHT22;23776;51.592;7.180;2022-07-23T14:14:33;40.00;99.90
37956;DHT22;23776;51.592;7.180;2022-07-23T14:16:58;39.80;99.90
37956;DHT22;23776;51.592;7.180;2022-07-23T14:19:24;39.70;99.90
37956;DHT22;23776;51.592;7.180;2022-07-23T14:21:49;40.60;99.90
37956;DHT22;23776;51.592;7.180;2022-07-23T14:24:16;42.40;99.90
37956;DHT22;23776;51.592;7.180;2022-07-23T14:26:42;42.30;99.90
37956;DHT22;23776;51.592;7.180;2022-07-23T14:29:07;42.60;99.90
37956;DHT22;23776;51.592;7.180;2022-07-23T14:31:33;43.40;99.90
37956;DHT22;23776;51.592;7.180;2022-07-23T14:33:59;43.80;99.90
37956;DHT22;23776;51.592;7.180;2022-07-23T14:36:25;43.80;99.90
37956;DHT22;23776;51.592;7.180;2022-07-23T14:38:51;44.00;99.90
37956;DHT22;23776;51.592;7.180;2022-07-23T14:41:17;43.90;99.90
37956;DHT22;23776;51.592;7.180;2022-07-23T14:43:43;41.90;99.90
37956;DHT22;23776;51.592;7.180;2022-07-23T14:46:09;39.30;99.90
37956;DHT22;23776;51.592;7.180;2022-07-23T14:48:36;37.60;99.90
37956;DHT22;23776;51.592;7.180;2022-07-23T14:51:02;34.90;99.90
37956;DHT22;23776;51.592;7.180;2022-07-23T14:53:27;33.50;99.90
37956;DHT22;23776;51.592;7.180;2022-07-23T14:55:53;33.30;99.90
37956;DHT22;23776;51.592;7.180;2022-07-23T14:58:20;34.60;99.90
37956;DHT22;23776;51.592;7.180;2022-07-23T15:00:45;36.50;99.90
37956;DHT22;23776;51.592;7.180;2022-07-23T15:03:11;38.60;99.90
37956;DHT22;23776;51.592;7.180;2022-07-23T15:05:36;40.10;99.90
37956;DHT22;23776;51.592;7.180;2022-07-23T15:08:02;40.40;99.90
37956;DHT22;23776;51.592;7.180;2022-07-23T15:10:28;41.20;99.90
37956;DHT22;23776;51.592;7.180;2022-07-23T15:12:53;41.90;99.90
37956;DHT22;23776;51.592;7.180;2022-07-23T15:15:19;42.60;99.90
37956;DHT22;23776;51.592;7.180;2022-07-23T15:17:44;42.80;99.90
37956;DHT22;23776;51.592;7.180;2022-07-23T15:20:10;43.20;99.90
37956;DHT22;23776;51.592;7.180;2022-07-23T15:22:36;42.40;99.90
37956;DHT22;23776;51.592;7.180;2022-07-23T15:25:01;41.30;99.90
37956;DHT22;23776;51.592;7.180;2022-07-23T15:27:27;41.30;99.90
37956;DHT22;23776;51.592;7.180;2022-07-23T15:29:53;40.10;99.90
37956;DHT22;23776;51.592;7.180;2022-07-23T15:32:19;38.60;99.90
37956;DHT22;23776;51.592;7.180;2022-07-23T15:34:44;38.00;99.90
37956;DHT22;23776;51.592;7.180;2022-07-23T15:37:10;38.20;99.90
37956;DHT22;23776;51.592;7.180;2022-07-23T15:39:35;39.00;99.90
37956;DHT22;23776;51.592;7.180;2022-07-23T15:42:02;38.20;99.90
37956;DHT22;23776;51.592;7.180;2022-07-23T15:44:28;35.70;99.90
37956;DHT22;23776;51.592;7.180;2022-07-23T15:46:53;35.40;99.90
37956;DHT22;23776;51.592;7.180;2022-07-23T15:49:20;34.40;99.90
37956;DHT22;23776;51.592;7.180;2022-07-23T15:51:46;33.60;99.90
37956;DHT22;23776;51.592;7.180;2022-07-23T15:54:12;32.30;99.90
37956;DHT22;23776;51.592;7.180;2022-07-23T15:56:38;32.30;99.90
37956;DHT22;23776;51.592;7.180;2022-07-23T15:59:03;32.80;99.90
37956;DHT22;23776;51.592;7.180;2022-07-23T16:01:29;32.50;99.90
37956;DHT22;23776;51.592;7.180;2022-07-23T16:03:56;32.10;99.90
37956;DHT22;23776;51.592;7.180;2022-07-23T16:06:24;31.20;99.90
37956;DHT22;23776;51.592;7.180;2022-07-23T16:08:50;29.90;99.90
37956;DHT22;23776;51.592;7.180;2022-07-23T16:11:15;31.10;99.90
37956;DHT22;23776;51.592;7.180;2022-07-23T16:13:41;30.60;99.90
37956;DHT22;23776;51.592;7.180;2022-07-23T16:16:07;29.90;99.90
37956;DHT22;23776;51.592;7.180;2022-07-23T16:18:34;29.70;99.90
37956;DHT22;23776;51.592;7.180;2022-07-23T16:20:59;30.10;99.90
37956;DHT22;23776;51.592;7.180;2022-07-23T16:23:25;30.50;99.90
37956;DHT22;23776;51.592;7.180;2022-07-23T16:25:51;30.20;99.90
37956;DHT22;23776;51.592;7.180;2022-07-23T16:28:16;30.10;99.90
37956;DHT22;23776;51.592;7.180;2022-07-23T16:30:42;30.00;99.90
37956;DHT22;23776;51.592;7.180;2022-07-23T16:33:08;31.10;99.90